Pagrindinis puslapis
METAR-TAF:

METAR-TAF

Oro uostai :

Arar, Saudo Arabija

platuma: 30-54N, ilguma: 041-08E, Aukštis: 555 m

Dabartinis oras

Ataskaita buvo paskelbta 23 minutes, ne 09:00 UTC
Vėjas 13 kt iš Pietryčių
Temperatūra 31°C
Drėgmė 27%
Slėgis 1017 hPa
Matomumas 10 km arba daugiau
nėra debesų žemiau 1500 m ir nėra kamuolinių lietaus debesų

METAR: OERR 180900Z 14013KT CAVOK 31/10 Q1017 NOSIG

Laikas: 12:23 (09:23 UTC)

Prognozė

Ataskaita buvo paskelbta 10 valandos ir 23 minutes, ne 23:00 UTC
Prognozė galioja nuo 18 metu 00 UTC su 19 metu 06 UTC
Vėjas 3 kt nuo kintamojo kryptimis
Matomumas: 7000 m
Išsisklaidę debesys ne aukštis 4000 ft
Išsisklaidę debesys ne aukštis 10000 ft
Laikinai
nuo 18 metu 00 UTC su 18 metu 06 UTC
Mažai debesys ne aukštis 3500 ft, Liūtiniai kamuoliniai debesys.
Su prošvaistėmis ne aukštis 4000 ft
Tapsmas
nuo 18 metu 06 UTC su 18 metu 08 UTC
Vėjas 13 kt iš Pietvakarių

TAF: OERR 172300Z 1800/1906 VRB03KT 7000 SCT040 SCT100 TEMPO 1800/1806 FEW035CB BKN040 BECMG 1806/1808 22013KT

Orai ataskaitas ir orų prognozės (METAR, TAF).

turimą stotys yra geltonos ir raudonos taškus žemėlapyje.

Perkelti pele per norėdami pamatyti stoties vardą.

Tada spustelėkite, norėdami matyti oro stebėjimo ir prognozės.

Norėdami pakeisti žemėlapį: spustelėkite ant žalios mygtukų su juodo kryžiaus žemyn,; žalią mygtuką su brūkšneliu, jei norite nutolinti; arba žalių rodyklių gretimoms žemėlapius.


METAR-TAF: